Forside
METAR-TAF:

METAR-TAF

Lufthavne :

Stettin, Polen

Breddekreds: 53-35N, længdekreds: 014-54E, højde: 1 m

Aktuelle vejr

Denne rapport blev lavet for 39 minutter siden, kl. 14:30 UTC
Vind 6 kt fra syd
Temperatur 19°C
Fugtighed 34%
Tryk 1025 hPa
Sigt 10 km eller mere
ingen skyer under 1500m og ingen cumulonimbus

METAR: EPSC 081430Z 17006KT CAVOK 19/03 Q1025

Tid: 17:09 (15:09 UTC)

Vejrudsigter

Denne rapport blev lavet for 3 timer og 39 minutter siden, kl. 11:30 UTC
Foreløbig gælder fra 08 på 12 UTC til 09 på 12 UTC
Vind 10 kt fra syd
Sigt 10 km eller mere
ingen skyer under 1500m og ingen cumulonimbus
ændring
fra 08 på 22 UTC til 08 på 24 UTC
Vind 10 kt fra vestsydvest
ændring
fra 09 på 03 UTC til 09 på 05 UTC
Vind 12 kt fra vestnordvest
Midlertidig
fra 09 på 10 UTC til 09 på 12 UTC
Vind 15 kt fra nordvest med vindstød på up til 25 kt

TAF: EPSC 081130Z 0812/0912 18010KT CAVOK BECMG 0822/0824 24010KT BECMG 0903/0905 30012KT TEMPO 0910/0912 32015G25KT

Vejrobservationer og prognoser fra mere end 4000 lufthavne (METAR og TAF).

De gule og røde prikker repræsenterer de meteorologiske stationer.

Flyt musen over at se navnet på stationen.

Så klik over at se vejr observationer og prognoser.

At skifte det kort: Klik på de grønne knapper med et sort kors for at zoome ind; på den grønne knap med en bindestreg for at zoome ud; eller på de grønne pile for tilstødende kort.


METAR-TAF: